Time;durP1;ratioP1;P1;durP2;ratioP2;P2;SDS_P1;SDS_P2;PMS_P1;PMS_P2;Temp;Humidity;BMP_temperature;BMP_pressure;BME280_temperature;BME280_humidity;BME280_pressure;Samples;Min_cycle;Max_cycle;Signal;HPM_P1;HPM_P2
2023/01/24 00:01:26;;;;;;;51.90;36.97;;;4.80;99.90;;;;;;5064301;28;20194;-32
2023/01/24 00:03:54;;;;;;;54.13;37.37;;;4.80;99.90;;;;;;5063829;28;20247;-32
2023/01/24 00:06:23;;;;;;;55.10;39.17;;;4.80;99.90;;;;;;5063927;28;20220;-32
2023/01/24 00:08:53;;;;;;;54.13;38.70;;;4.90;99.90;;;;;;5064670;28;20461;-32
2023/01/24 00:11:20;;;;;;;55.13;38.70;;;4.90;99.90;;;;;;5064147;28;20883;-32
2023/01/24 00:13:50;;;;;;;50.00;37.40;;;4.90;99.90;;;;;;5064914;28;20640;-32
2023/01/24 00:16:20;;;;;;;57.17;39.23;;;5.00;99.90;;;;;;5063357;28;20704;-32
2023/01/24 00:18:52;;;;;;;56.00;39.43;;;5.00;99.90;;;;;;5064774;28;20227;-32
2023/01/24 00:21:26;;;;;;;55.53;37.33;;;5.00;99.90;;;;;;5062021;28;20243;-32
2023/01/24 00:23:55;;;;;;;54.97;38.97;;;4.90;99.90;;;;;;5045995;28;20323;-32
2023/01/24 00:26:24;;;;;;;51.50;38.50;;;4.90;99.90;;;;;;5046215;28;20258;-32
2023/01/24 00:28:57;;;;;;;54.57;38.97;;;4.90;99.90;;;;;;5061038;28;20219;-32
2023/01/24 00:31:25;;;;;;;54.47;38.20;;;4.90;99.90;;;;;;5065456;28;20719;-32
2023/01/24 00:33:54;;;;;;;56.60;39.23;;;4.90;99.90;;;;;;5064645;28;20328;-32
2023/01/24 00:36:23;;;;;;;53.40;37.37;;;4.90;99.90;;;;;;5065497;28;20702;-32
2023/01/24 00:38:51;;;;;;;54.00;38.40;;;4.90;99.90;;;;;;5064275;28;20223;-32
2023/01/24 00:41:18;;;;;;;51.10;36.53;;;4.90;99.90;;;;;;5064708;28;20254;-32
2023/01/24 00:43:45;;;;;;;49.43;36.93;;;4.90;99.90;;;;;;5065291;28;20229;-32
2023/01/24 00:46:12;;;;;;;48.03;34.27;;;4.90;99.90;;;;;;5065098;28;20249;-32
2023/01/24 00:48:42;;;;;;;43.50;33.10;;;4.90;99.90;;;;;;5051591;28;20224;-32
2023/01/24 00:51:11;;;;;;;44.67;33.63;;;4.90;99.90;;;;;;5063970;28;20204;-32
2023/01/24 00:53:41;;;;;;;46.30;33.53;;;4.80;99.90;;;;;;5050957;28;20317;-32
2023/01/24 00:56:10;;;;;;;45.83;35.23;;;4.70;99.90;;;;;;5062067;28;20215;-32
2023/01/24 00:58:43;;;;;;;46.60;34.27;;;4.80;99.90;;;;;;5054905;28;20461;-32
2023/01/24 01:01:10;;;;;;;46.83;33.67;;;4.80;99.90;;;;;;5050014;28;20250;-32
2023/01/24 01:03:40;;;;;;;47.23;34.13;;;4.80;99.90;;;;;;5055796;28;20211;-32
2023/01/24 01:06:12;;;;;;;47.40;34.87;;;4.80;99.90;;;;;;5058215;28;20694;-32
2023/01/24 01:08:39;;;;;;;49.13;35.50;;;4.80;99.90;;;;;;5063542;28;20199;-32
2023/01/24 01:11:07;;;;;;;45.40;33.93;;;4.80;99.90;;;;;;5064559;28;20249;-32
2023/01/24 01:13:34;;;;;;;46.73;32.77;;;4.80;99.90;;;;;;5057778;28;21037;-32
2023/01/24 01:16:16;;;;;;;48.80;34.07;;;4.80;99.90;;;;;;5064706;28;20253;-32
2023/01/24 01:18:43;;;;;;;46.40;34.03;;;4.80;99.90;;;;;;5050368;28;20212;-32
2023/01/24 01:21:19;;;;;;;47.83;35.27;;;4.80;99.90;;;;;;5064676;28;20223;-32
2023/01/24 01:23:49;;;;;;;46.50;34.23;;;4.80;99.90;;;;;;5063390;28;20211;-32
2023/01/24 01:26:19;;;;;;;51.70;35.30;;;4.80;99.90;;;;;;5051562;28;20689;-32
2023/01/24 01:28:50;;;;;;;49.47;34.50;;;4.80;99.90;;;;;;5064284;28;20210;-32
2023/01/24 01:31:22;;;;;;;47.93;34.87;;;4.80;99.90;;;;;;5056174;28;20738;-32
2023/01/24 01:33:54;;;;;;;46.83;34.60;;;4.80;99.90;;;;;;5063313;28;20214;-32
2023/01/24 01:36:26;;;;;;;48.70;33.17;;;4.80;99.90;;;;;;5064436;28;20227;-32
2023/01/24 01:38:53;;;;;;;48.57;35.17;;;4.80;99.90;;;;;;5064413;28;20223;-32
2023/01/24 01:41:20;;;;;;;49.57;35.77;;;4.80;99.90;;;;;;5051642;28;20289;-32
2023/01/24 01:46:51;;;;;;;48.53;35.40;;;4.70;99.90;;;;;;5067516;28;20702;-32
2023/01/24 01:49:24;;;;;;;47.97;34.53;;;4.80;99.90;;;;;;5062853;28;20724;-32
2023/01/24 01:52:02;;;;;;;48.23;34.27;;;4.80;99.90;;;;;;5064111;28;20284;-32
2023/01/24 01:54:39;;;;;;;49.03;33.90;;;4.80;99.90;;;;;;5064370;28;20298;-32
2023/01/24 01:57:19;;;;;;;49.37;33.97;;;4.70;99.90;;;;;;5067389;28;20631;-32
2023/01/24 01:59:55;;;;;;;45.80;33.13;;;4.70;99.90;;;;;;5060521;28;20234;-32
2023/01/24 02:02:25;;;;;;;45.20;32.73;;;4.70;99.90;;;;;;5049648;28;20203;-32
2023/01/24 02:05:04;;;;;;;43.03;32.57;;;4.70;99.90;;;;;;5064094;28;20220;-32
2023/01/24 02:07:52;;;;;;;45.20;32.87;;;4.70;99.90;;;;;;5054879;28;20222;-32
2023/01/24 02:10:22;;;;;;;46.23;32.80;;;4.80;99.90;;;;;;5052840;28;20262;-32
2023/01/24 02:12:54;;;;;;;44.77;33.70;;;4.80;99.90;;;;;;5047922;28;20215;-32
2023/01/24 02:18:12;;;;;;;44.43;32.37;;;4.80;99.90;;;;;;5056659;28;20299;-32
2023/01/24 02:20:42;;;;;;;46.57;33.83;;;4.80;99.90;;;;;;5063210;28;20231;-32
2023/01/24 02:23:40;;;;;;;46.03;33.03;;;4.90;99.90;;;;;;5052970;28;20208;-32
2023/01/24 02:26:12;;;;;;;44.33;33.60;;;4.90;99.90;;;;;;5047420;28;20238;-32
2023/01/24 02:28:47;;;;;;;43.77;32.17;;;4.90;99.90;;;;;;5062410;28;20215;-32
2023/01/24 02:31:14;;;;;;;47.17;32.53;;;4.90;99.90;;;;;;5067490;28;20690;-32
2023/01/24 02:33:47;;;;;;;47.20;33.97;;;4.90;99.90;;;;;;5066507;28;20594;-32
2023/01/24 02:36:34;;;;;;;44.13;31.97;;;4.90;99.90;;;;;;5067306;28;20203;-32
2023/01/24 02:39:18;;;;;;;44.00;31.27;;;4.90;99.90;;;;;;5064659;28;20236;-32
2023/01/24 02:41:52;;;;;;;41.77;30.33;;;4.90;99.90;;;;;;5067075;28;20222;-32
2023/01/24 02:45:01;;;;;;;42.00;31.30;;;4.90;99.90;;;;;;5067150;28;20597;-32
2023/01/24 02:47:32;;;;;;;40.40;29.40;;;4.90;99.90;;;;;;5064760;28;20203;-32
2023/01/24 02:50:03;;;;;;;38.70;29.03;;;4.90;99.90;;;;;;5066358;28;20631;-32
2023/01/24 02:55:24;;;;;;;37.73;29.00;;;4.90;99.90;;;;;;5061561;28;20273;-32
2023/01/24 02:58:06;;;;;;;40.70;29.27;;;4.90;99.90;;;;;;5066885;28;20207;-32
2023/01/24 03:00:42;;;;;;;42.87;29.63;;;5.00;99.90;;;;;;5066980;28;20523;-32
2023/01/24 03:03:14;;;;;;;40.30;28.67;;;5.00;99.90;;;;;;5051615;28;20258;-32
2023/01/24 03:05:56;;;;;;;38.23;27.63;;;5.00;99.90;;;;;;5056414;28;20226;-32
2023/01/24 03:08:32;;;;;;;37.87;27.23;;;5.00;99.90;;;;;;5065035;28;20563;-32
2023/01/24 03:11:00;;;;;;;39.40;29.37;;;5.00;99.90;;;;;;5054955;28;20249;-32
2023/01/24 03:35:53;;;;;;;39.00;28.23;;;5.00;99.90;;;;;;5046013;28;20209;-32
2023/01/24 03:41:07;;;;;;;38.27;27.40;;;4.90;99.90;;;;;;5044466;28;20316;-32
2023/01/24 03:43:35;;;;;;;37.83;27.93;;;5.00;99.90;;;;;;5062859;28;20258;-32
2023/01/24 03:46:02;;;;;;;38.13;27.97;;;5.00;99.90;;;;;;5065273;28;20223;-32
2023/01/24 03:48:36;;;;;;;37.17;26.10;;;5.00;99.90;;;;;;5061623;28;20200;-32
2023/01/24 03:53:53;;;;;;;38.47;29.23;;;5.00;99.90;;;;;;5065811;28;20215;-32
2023/01/24 03:56:23;;;;;;;38.77;28.50;;;5.00;99.90;;;;;;5065797;28;20294;-33
2023/01/24 03:58:53;;;;;;;33.37;26.90;;;5.00;99.90;;;;;;5065978;28;20724;-32
2023/01/24 04:01:25;;;;;;;37.10;28.00;;;5.00;99.90;;;;;;5065828;28;20303;-32
2023/01/24 04:03:52;;;;;;;38.77;26.27;;;5.00;99.90;;;;;;5054655;28;20299;-32
2023/01/24 04:06:24;;;;;;;35.57;26.77;;;5.00;99.90;;;;;;5057614;28;20195;-32
2023/01/24 04:08:54;;;;;;;41.60;29.03;;;5.00;99.90;;;;;;5065269;28;20199;-32
2023/01/24 04:11:21;;;;;;;37.13;27.70;;;4.90;99.90;;;;;;5065375;28;20208;-32
2023/01/24 04:13:48;;;;;;;38.10;29.00;;;5.00;99.90;;;;;;5064424;28;20207;-32
2023/01/24 04:16:20;;;;;;;37.90;28.30;;;4.90;99.90;;;;;;5065269;28;20219;-32
2023/01/24 04:18:47;;;;;;;33.67;26.33;;;4.90;99.90;;;;;;5063343;28;20222;-32
2023/01/24 04:21:17;;;;;;;37.23;27.10;;;4.90;99.90;;;;;;5060386;28;20276;-32
2023/01/24 04:23:44;;;;;;;35.73;27.70;;;4.90;99.90;;;;;;5065021;28;20223;-32
2023/01/24 04:26:15;;;;;;;38.23;27.97;;;4.90;99.90;;;;;;5058670;28;20744;-32
2023/01/24 04:28:47;;;;;;;37.47;27.20;;;4.90;99.90;;;;;;5064999;28;20206;-32
2023/01/24 04:31:14;;;;;;;39.70;29.40;;;4.90;99.90;;;;;;5065115;28;20203;-32
2023/01/24 04:33:42;;;;;;;36.90;27.63;;;4.90;99.90;;;;;;5079546;28;20705;-32
2023/01/24 04:36:10;;;;;;;38.30;28.00;;;5.00;99.90;;;;;;5064306;28;20728;-32
2023/01/24 04:38:37;;;;;;;37.00;27.43;;;5.00;99.90;;;;;;5044855;28;20200;-32
2023/01/24 04:41:13;;;;;;;38.77;29.03;;;5.00;99.90;;;;;;5055149;28;20220;-32
2023/01/24 04:43:41;;;;;;;39.20;29.37;;;5.10;99.90;;;;;;5062142;28;20230;-32
2023/01/24 04:46:10;;;;;;;39.97;29.37;;;5.10;99.90;;;;;;5065087;28;20278;-32
2023/01/24 04:48:38;;;;;;;39.10;29.47;;;5.00;99.90;;;;;;5064475;28;20231;-32
2023/01/24 04:51:05;;;;;;;40.47;29.30;;;5.10;99.90;;;;;;5063499;28;20208;-32
2023/01/24 04:53:35;;;;;;;42.60;31.50;;;5.10;99.90;;;;;;5064048;28;20239;-32
2023/01/24 04:56:02;;;;;;;41.57;30.77;;;5.00;99.90;;;;;;5064395;28;20298;-32
2023/01/24 04:58:33;;;;;;;43.23;31.80;;;5.10;99.90;;;;;;5063798;28;20608;-32
2023/01/24 05:01:00;;;;;;;43.80;32.30;;;5.10;99.90;;;;;;5064295;28;20238;-32
2023/01/24 05:03:32;;;;;;;46.50;33.73;;;5.10;99.90;;;;;;5061875;28;20219;-32
2023/01/24 05:06:02;;;;;;;45.50;34.73;;;5.10;99.90;;;;;;5065599;28;20214;-32
2023/01/24 05:08:35;;;;;;;45.63;34.13;;;5.10;99.90;;;;;;5063081;28;20651;-32
2023/01/24 05:11:05;;;;;;;42.60;32.60;;;5.10;99.90;;;;;;5043368;28;20196;-32
2023/01/24 05:13:37;;;;;;;46.17;33.63;;;5.10;99.90;;;;;;5060383;28;20200;-32
2023/01/24 05:16:07;;;;;;;46.93;34.73;;;5.10;99.90;;;;;;5058166;28;20210;-32
2023/01/24 05:18:38;;;;;;;48.90;34.93;;;5.00;99.90;;;;;;5060299;28;20204;-32
2023/01/24 05:21:10;;;;;;;50.33;36.73;;;5.00;99.90;;;;;;5049649;28;20636;-32
2023/01/24 05:23:40;;;;;;;47.83;35.23;;;5.00;99.90;;;;;;5044490;28;20214;-32
2023/01/24 05:26:10;;;;;;;49.63;36.23;;;5.00;99.90;;;;;;5044882;28;20285;-32
2023/01/24 05:28:39;;;;;;;50.47;35.87;;;5.00;99.90;;;;;;5056936;28;20257;-32
2023/01/24 05:31:09;;;;;;;48.67;36.97;;;5.00;99.90;;;;;;5066496;28;20635;-32
2023/01/24 05:33:36;;;;;;;49.57;36.80;;;5.00;99.90;;;;;;5068522;28;20427;-32
2023/01/24 05:36:09;;;;;;;49.03;35.73;;;5.00;99.90;;;;;;5067065;28;20200;-32
2023/01/24 05:38:38;;;;;;;48.43;35.57;;;4.90;99.90;;;;;;5068446;28;20261;-32
2023/01/24 05:41:11;;;;;;;45.77;34.93;;;5.00;99.90;;;;;;5068516;28;20658;-32
2023/01/24 05:43:40;;;;;;;44.47;33.90;;;4.90;99.90;;;;;;5069064;28;20615;-32
2023/01/24 05:46:13;;;;;;;46.87;35.57;;;4.80;99.90;;;;;;5050838;28;20208;-32
2023/01/24 05:48:44;;;;;;;46.77;35.63;;;4.80;99.90;;;;;;5057345;28;20357;-32
2023/01/24 05:51:13;;;;;;;46.70;33.80;;;4.80;99.90;;;;;;5067973;28;20230;-32
2023/01/24 05:53:42;;;;;;;47.00;34.27;;;4.80;99.90;;;;;;5067835;28;20709;-32
2023/01/24 05:56:15;;;;;;;45.47;33.47;;;4.80;99.90;;;;;;5067908;28;20219;-32
2023/01/24 05:58:46;;;;;;;47.10;34.83;;;4.80;99.90;;;;;;5066980;28;20199;-32
2023/01/24 06:01:21;;;;;;;47.40;33.97;;;4.80;99.90;;;;;;5061997;28;20227;-32
2023/01/24 06:03:51;;;;;;;45.60;33.70;;;4.80;99.90;;;;;;5061489;28;20210;-32
2023/01/24 06:06:23;;;;;;;46.63;34.30;;;4.80;99.90;;;;;;5060360;28;20208;-32
2023/01/24 06:08:53;;;;;;;48.13;35.50;;;4.80;99.90;;;;;;5059821;28;20243;-32
2023/01/24 06:11:22;;;;;;;46.13;35.10;;;4.80;99.90;;;;;;5062407;28;20277;-32
2023/01/24 06:13:56;;;;;;;47.20;34.03;;;4.70;99.90;;;;;;5060454;28;20224;-32
2023/01/24 06:16:25;;;;;;;49.80;34.87;;;4.70;99.90;;;;;;5061723;28;20199;-32
2023/01/24 06:18:55;;;;;;;52.17;35.93;;;4.80;99.90;;;;;;5059190;28;20776;-32
2023/01/24 06:21:45;;;;;;;48.60;33.43;;;4.80;99.90;;;;;;5062941;28;20311;-32
2023/01/24 06:24:19;;;;;;;45.77;33.83;;;4.80;99.90;;;;;;5065343;28;20261;-32
2023/01/24 06:26:49;;;;;;;50.27;35.83;;;4.80;99.90;;;;;;5067324;28;20827;-32
2023/01/24 06:29:19;;;;;;;49.97;35.87;;;4.80;99.90;;;;;;5064558;28;20207;-32
2023/01/24 06:32:10;;;;;;;50.90;36.47;;;4.80;99.90;;;;;;5065674;28;20616;-32
2023/01/24 06:35:04;;;;;;;49.13;35.10;;;4.70;99.90;;;;;;5063517;28;20207;-32
2023/01/24 06:37:44;;;;;;;51.20;36.47;;;4.80;99.90;;;;;;5060665;28;20203;-32
2023/01/24 06:40:13;;;;;;;50.30;36.70;;;4.80;99.90;;;;;;5045790;28;20227;-32
2023/01/24 06:42:41;;;;;;;50.47;35.67;;;4.80;99.90;;;;;;5046053;28;20204;-32
2023/01/24 06:45:09;;;;;;;50.93;35.73;;;4.80;99.90;;;;;;5045768;28;20203;-32
2023/01/24 06:47:36;;;;;;;52.00;35.83;;;4.80;99.90;;;;;;5046355;28;20196;-32
2023/01/24 06:50:07;;;;;;;52.07;36.80;;;4.70;99.90;;;;;;5060582;28;20219;-32
2023/01/24 06:52:43;;;;;;;52.87;37.13;;;4.70;99.90;;;;;;5051095;28;20231;-33
2023/01/24 06:55:10;;;;;;;53.20;35.40;;;4.70;99.90;;;;;;5067006;28;20322;-32
2023/01/24 06:57:40;;;;;;;51.70;36.50;;;4.70;99.90;;;;;;5066883;28;20219;-33
2023/01/24 07:00:08;;;;;;;51.47;36.07;;;4.60;99.90;;;;;;5063441;28;20215;-32
2023/01/24 07:02:36;;;;;;;54.07;37.97;;;4.70;99.90;;;;;;5055776;28;20257;-32
2023/01/24 07:05:06;;;;;;;52.90;37.27;;;4.70;99.90;;;;;;5059176;28;20214;-32
2023/01/24 07:07:33;;;;;;;50.47;36.63;;;4.70;99.90;;;;;;5054152;28;20199;-32
2023/01/24 07:10:03;;;;;;;53.40;37.73;;;4.70;99.90;;;;;;5062642;28;20261;-32
2023/01/24 07:12:33;;;;;;;51.43;35.97;;;4.70;99.90;;;;;;5065109;28;20195;-32
2023/01/24 07:15:00;;;;;;;46.60;34.70;;;4.70;99.90;;;;;;5063419;28;20211;-32
2023/01/24 07:17:32;;;;;;;45.53;31.50;;;4.70;99.90;;;;;;5062800;28;20204;-32
2023/01/24 07:20:02;;;;;;;39.50;28.83;;;4.70;99.90;;;;;;5066317;28;20212;-32
2023/01/24 07:22:32;;;;;;;38.47;29.03;;;4.60;99.90;;;;;;5066802;28;20250;-32
2023/01/24 07:25:00;;;;;;;37.70;27.70;;;4.60;99.90;;;;;;5058967;28;20285;-32
2023/01/24 07:27:27;;;;;;;37.20;27.13;;;4.50;99.90;;;;;;5063184;28;20200;-32
2023/01/24 07:29:58;;;;;;;38.30;28.10;;;4.60;99.90;;;;;;5063765;28;20256;-32
2023/01/24 07:32:27;;;;;;;40.80;29.00;;;4.60;99.90;;;;;;5063654;28;20210;-32
2023/01/24 07:34:57;;;;;;;35.80;27.27;;;4.50;99.90;;;;;;5066248;28;20212;-32
2023/01/24 07:37:24;;;;;;;38.20;28.10;;;4.50;99.90;;;;;;5065657;28;20215;-32
2023/01/24 07:39:53;;;;;;;40.63;28.17;;;4.50;99.90;;;;;;5062321;28;20222;-32
2023/01/24 07:42:23;;;;;;;41.50;30.27;;;4.50;99.90;;;;;;5061669;28;20740;-32
2023/01/24 07:44:56;;;;;;;39.53;30.57;;;4.60;99.90;;;;;;5064942;28;20206;-32
2023/01/24 07:47:25;;;;;;;40.67;30.20;;;4.60;99.90;;;;;;5063015;28;20195;-32
2023/01/24 07:49:58;;;;;;;39.07;29.30;;;4.60;99.90;;;;;;5063558;28;20262;-32
2023/01/24 07:52:27;;;;;;;43.83;30.83;;;4.60;99.90;;;;;;5061875;28;20772;-32
2023/01/24 07:54:57;;;;;;;42.13;31.60;;;4.60;99.90;;;;;;5043504;28;20204;-32
2023/01/24 07:57:24;;;;;;;41.77;30.93;;;4.70;99.90;;;;;;5058388;28;20324;-32
2023/01/24 07:59:51;;;;;;;44.33;30.60;;;4.70;99.90;;;;;;5080728;28;20304;-32
2023/01/24 08:02:18;;;;;;;41.43;30.23;;;4.70;99.90;;;;;;5063425;28;20231;-32
2023/01/24 08:04:48;;;;;;;44.80;31.97;;;4.80;99.90;;;;;;5063228;28;20203;-32
2023/01/24 08:07:18;;;;;;;38.80;29.27;;;4.80;99.90;;;;;;5064667;28;20203;-32
2023/01/24 08:09:49;;;;;;;40.20;30.17;;;4.70;99.90;;;;;;5063257;28;20203;-32
2023/01/24 08:12:21;;;;;;;41.73;29.10;;;4.70;99.90;;;;;;5063272;28;20199;-32
2023/01/24 08:14:48;;;;;;;39.53;29.20;;;4.80;99.90;;;;;;5080579;28;20314;-32
2023/01/24 08:17:20;;;;;;;37.47;27.97;;;4.80;99.90;;;;;;5064020;28;20204;-32
2023/01/24 08:19:48;;;;;;;37.27;28.07;;;4.80;99.90;;;;;;5063201;28;20207;-32
2023/01/24 08:22:26;;;;;;;33.73;25.70;;;4.80;99.90;;;;;;5062684;28;20247;-32
2023/01/24 08:24:54;;;;;;;36.83;27.63;;;4.80;99.90;;;;;;5060591;28;20756;-32
2023/01/24 08:27:26;;;;;;;36.17;27.73;;;4.80;99.90;;;;;;5063928;28;20191;-32
2023/01/24 08:29:53;;;;;;;38.40;28.63;;;4.80;99.90;;;;;;5062122;28;20739;-32
2023/01/24 08:32:21;;;;;;;34.90;26.90;;;4.80;99.90;;;;;;5051958;28;20243;-32
2023/01/24 08:34:49;;;;;;;37.43;28.23;;;4.80;99.90;;;;;;5062324;28;20231;-32
2023/01/24 08:37:16;;;;;;;40.40;30.37;;;4.80;99.90;;;;;;5049346;28;20199;-32
2023/01/24 08:39:43;;;;;;;38.33;29.33;;;4.90;99.90;;;;;;5065342;28;20207;-32
2023/01/24 08:42:13;;;;;;;37.60;28.27;;;4.90;99.90;;;;;;5060541;28;20219;-32
2023/01/24 08:44:43;;;;;;;38.20;29.50;;;4.90;99.90;;;;;;5063010;28;20195;-32
2023/01/24 08:47:10;;;;;;;36.10;28.77;;;4.90;99.90;;;;;;5061680;28;20207;-32
2023/01/24 08:49:39;;;;;;;38.43;29.73;;;4.90;99.90;;;;;;5062913;28;20215;-32
2023/01/24 08:52:07;;;;;;;39.63;30.83;;;4.90;99.90;;;;;;5060171;28;20707;-32
2023/01/24 08:54:39;;;;;;;42.10;31.07;;;4.90;99.90;;;;;;5056117;28;20264;-32
2023/01/24 08:57:10;;;;;;;42.93;31.07;;;4.90;99.90;;;;;;5060207;28;20242;-32
2023/01/24 08:59:37;;;;;;;38.50;29.77;;;4.90;99.90;;;;;;5059237;28;20649;-32
2023/01/24 09:02:04;;;;;;;42.53;31.07;;;4.90;99.90;;;;;;5064720;28;20265;-32
2023/01/24 09:04:34;;;;;;;33.03;26.63;;;4.90;99.90;;;;;;5061934;28;20199;-32
2023/01/24 09:07:04;;;;;;;36.37;27.97;;;4.90;99.90;;;;;;5057796;28;20290;-32
2023/01/24 09:09:31;;;;;;;33.30;26.47;;;4.90;99.90;;;;;;5059400;28;20254;-32
2023/01/24 09:12:00;;;;;;;34.50;26.23;;;4.90;99.90;;;;;;5061001;28;20215;-32
2023/01/24 09:14:28;;;;;;;31.60;23.63;;;4.90;99.90;;;;;;5059718;28;20269;-32
2023/01/24 09:16:57;;;;;;;30.47;23.83;;;4.90;99.90;;;;;;5062093;28;20285;-32
2023/01/24 09:19:26;;;;;;;29.10;22.77;;;4.90;99.90;;;;;;5064329;28;20234;-32
2023/01/24 09:21:56;;;;;;;31.20;22.33;;;4.80;99.90;;;;;;5063195;28;20314;-32
2023/01/24 09:24:28;;;;;;;26.53;22.17;;;4.80;99.90;;;;;;5062692;28;20294;-32
2023/01/24 09:26:56;;;;;;;26.40;21.47;;;4.80;99.90;;;;;;5055658;28;20272;-32
2023/01/24 09:29:24;;;;;;;27.00;21.47;;;4.90;99.90;;;;;;5062556;28;20204;-32
2023/01/24 09:31:54;;;;;;;26.47;20.33;;;4.90;99.90;;;;;;5063429;28;20663;-32
2023/01/24 09:34:22;;;;;;;27.43;21.43;;;4.90;99.90;;;;;;5061029;28;20207;-32
2023/01/24 09:36:51;;;;;;;31.10;22.30;;;4.90;99.90;;;;;;5063622;28;20227;-32
2023/01/24 09:39:19;;;;;;;28.13;21.67;;;4.90;99.90;;;;;;5064846;28;20211;-32
2023/01/24 09:42:35;;;;;;;27.90;21.37;;;4.90;99.90;;;;;;5075936;28;20622;-32
2023/01/24 09:45:16;;;;;;;27.93;20.07;;;4.90;99.90;;;;;;5063182;28;20208;-32
2023/01/24 09:47:59;;;;;;;27.73;20.37;;;4.80;99.90;;;;;;5062663;28;20204;-33
2023/01/24 09:50:54;;;;;;;32.43;21.57;;;4.80;99.90;;;;;;5063130;28;20547;-32
2023/01/24 09:53:32;;;;;;;27.97;21.30;;;4.80;99.90;;;;;;5061921;28;20721;-32
2023/01/24 09:56:01;;;;;;;31.37;21.67;;;4.80;99.90;;;;;;5062028;28;20207;-32
2023/01/24 09:58:45;;;;;;;29.50;21.07;;;4.80;99.90;;;;;;5058648;28;20220;-32
2023/01/24 10:01:14;;;;;;;29.20;21.27;;;4.80;99.90;;;;;;5052529;28;20207;-32
2023/01/24 10:03:46;;;;;;;29.10;20.87;;;4.80;99.90;;;;;;5062017;28;20211;-32
2023/01/24 10:06:29;;;;;;;28.43;21.27;;;4.80;99.90;;;;;;5059591;28;20207;-32
2023/01/24 10:09:19;;;;;;;26.50;20.60;;;4.80;99.90;;;;;;5066625;28;20289;-32
2023/01/24 10:12:06;;;;;;;27.83;20.80;;;4.80;99.90;;;;;;5059979;28;20204;-32
2023/01/24 10:14:40;;;;;;;29.50;22.10;;;4.80;99.90;;;;;;5063021;28;20690;-32
2023/01/24 10:17:20;;;;;;;28.17;21.00;;;4.80;99.90;;;;;;5060708;28;20211;-32
2023/01/24 10:19:59;;;;;;;29.40;22.03;;;4.80;99.90;;;;;;5060956;28;20207;-32
2023/01/24 10:22:39;;;;;;;29.43;22.50;;;4.90;99.90;;;;;;5062157;28;20219;-32
2023/01/24 10:25:20;;;;;;;26.13;20.70;;;4.90;99.90;;;;;;5065294;28;20215;-32
2023/01/24 10:27:53;;;;;;;27.70;22.57;;;4.90;99.90;;;;;;5065396;28;20195;-32
2023/01/24 10:30:39;;;;;;;26.57;22.33;;;4.90;99.90;;;;;;5049504;28;20293;-32
2023/01/24 10:33:18;;;;;;;29.67;23.13;;;5.00;99.90;;;;;;5054892;28;20279;-32
2023/01/24 10:35:54;;;;;;;29.60;21.63;;;5.00;99.90;;;;;;5059854;28;20249;-32
2023/01/24 10:38:22;;;;;;;30.37;21.90;;;5.00;99.90;;;;;;5072230;28;20834;-32
2023/01/24 10:41:12;;;;;;;37.70;22.97;;;5.00;99.90;;;;;;5067489;28;20199;-32
2023/01/24 10:43:45;;;;;;;34.53;22.20;;;5.10;99.90;;;;;;5064252;28;20208;-32
2023/01/24 10:46:42;;;;;;;26.70;20.67;;;5.00;99.90;;;;;;5065945;28;20249;-32
2023/01/24 10:49:25;;;;;;;28.27;21.97;;;5.00;99.90;;;;;;5046273;28;20231;-32
2023/01/24 10:52:15;;;;;;;31.87;21.10;;;5.10;99.90;;;;;;5059587;28;20889;-32
2023/01/24 10:54:56;;;;;;;26.20;20.33;;;5.10;99.90;;;;;;5062821;28;20670;-32
2023/01/24 10:57:40;;;;;;;29.37;21.20;;;5.10;99.90;;;;;;5058926;28;20235;-32
2023/01/24 11:00:32;;;;;;;26.53;20.67;;;5.00;99.90;;;;;;5056089;28;20380;-32
2023/01/24 11:03:15;;;;;;;25.40;19.83;;;5.00;99.90;;;;;;5049278;28;20242;-32
2023/01/24 11:05:48;;;;;;;24.80;19.60;;;4.90;99.90;;;;;;5065869;28;20199;-32
2023/01/24 11:08:21;;;;;;;24.33;18.60;;;4.90;99.90;;;;;;5059357;28;20278;-32
2023/01/24 11:10:58;;;;;;;28.70;20.63;;;5.00;99.90;;;;;;5061788;28;20831;-32
2023/01/24 11:13:38;;;;;;;24.67;19.30;;;5.00;99.90;;;;;;5063416;28;20200;-32
2023/01/24 11:16:17;;;;;;;24.87;19.60;;;5.00;99.90;;;;;;5065312;28;20195;-32
2023/01/24 11:18:52;;;;;;;25.93;19.17;;;5.00;99.90;;;;;;5062978;28;20215;-32
2023/01/24 11:21:20;;;;;;;24.73;19.97;;;4.90;99.90;;;;;;5064151;28;20222;-32
2023/01/24 11:24:07;;;;;;;25.07;19.47;;;4.90;99.90;;;;;;5061335;28;21516;-32
2023/01/24 11:26:52;;;;;;;25.30;19.43;;;4.90;99.90;;;;;;5070072;28;20582;-32
2023/01/24 11:29:19;;;;;;;27.93;20.83;;;5.00;99.90;;;;;;5059501;28;20211;-32
2023/01/24 11:32:01;;;;;;;25.93;19.93;;;5.00;99.90;;;;;;5065546;28;20654;-32
2023/01/24 11:34:44;;;;;;;26.37;19.63;;;5.10;99.90;;;;;;5064874;28;20213;-32
2023/01/24 11:37:44;;;;;;;23.13;19.20;;;5.10;99.90;;;;;;5060310;28;20233;-32
2023/01/24 11:40:23;;;;;;;26.63;20.63;;;5.10;99.90;;;;;;5069999;28;20230;-32
2023/01/24 11:43:05;;;;;;;30.10;21.40;;;5.10;99.90;;;;;;5062987;28;20544;-32
2023/01/24 11:45:43;;;;;;;26.97;21.00;;;5.10;99.90;;;;;;5066271;28;20196;-32
2023/01/24 11:48:22;;;;;;;27.10;21.53;;;5.10;99.90;;;;;;5062547;28;20221;-32
2023/01/24 11:51:02;;;;;;;28.20;22.07;;;5.20;99.90;;;;;;5064574;28;20290;-32
2023/01/24 11:54:24;;;;;;;27.20;21.67;;;5.20;99.90;;;;;;5065117;28;20575;-32
2023/01/24 11:56:51;;;;;;;27.17;20.43;;;5.20;99.90;;;;;;5067030;28;20954;-32
2023/01/24 11:59:52;;;;;;;24.33;19.63;;;5.20;99.90;;;;;;5053368;28;20236;-32
2023/01/24 12:02:40;;;;;;;28.53;22.37;;;5.20;99.90;;;;;;5044491;28;20216;-32
2023/01/24 12:05:10;;;;;;;28.83;21.83;;;5.20;99.90;;;;;;5067147;28;20212;-32
2023/01/24 12:08:17;;;;;;;27.63;22.07;;;5.20;99.90;;;;;;5060211;28;20678;-32
2023/01/24 12:11:03;;;;;;;28.87;22.33;;;5.20;99.90;;;;;;5052289;28;20211;-32
2023/01/24 12:14:16;;;;;;;28.23;22.67;;;5.20;99.90;;;;;;5052161;28;20310;-32
2023/01/24 12:17:10;;;;;;;29.10;22.77;;;5.10;99.90;;;;;;5051454;28;20338;-32
2023/01/24 12:20:34;;;;;;;26.87;21.30;;;5.10;99.90;;;;;;5053341;28;20771;-32
2023/01/24 12:23:28;;;;;;;28.90;21.60;;;5.10;99.90;;;;;;5058586;28;20223;-32
2023/01/24 12:26:01;;;;;;;32.67;23.67;;;5.10;99.90;;;;;;5058954;28;20586;-33
2023/01/24 12:28:49;;;;;;;30.03;22.07;;;5.10;99.90;;;;;;5064220;28;20694;-32
2023/01/24 12:31:28;;;;;;;29.40;22.57;;;5.10;99.90;;;;;;5061383;28;20203;-32
2023/01/24 12:34:04;;;;;;;29.00;21.80;;;4.90;99.90;;;;;;5052597;28;20211;-32
2023/01/24 12:36:48;;;;;;;28.13;22.50;;;4.90;99.90;;;;;;5055780;28;20294;-32
2023/01/24 12:39:20;;;;;;;31.10;23.27;;;4.90;99.90;;;;;;5054084;28;20215;-32
2023/01/24 12:42:04;;;;;;;29.70;23.10;;;5.00;99.90;;;;;;5052980;28;20220;-32
2023/01/24 12:44:46;;;;;;;28.03;22.70;;;5.00;99.90;;;;;;5044671;28;20702;-32
2023/01/24 12:47:36;;;;;;;30.77;24.40;;;5.10;99.90;;;;;;5057773;28;20211;-32
2023/01/24 12:50:25;;;;;;;30.47;23.87;;;5.10;99.90;;;;;;5051476;28;20749;-32
2023/01/24 12:53:00;;;;;;;30.93;24.47;;;5.10;99.90;;;;;;5059250;28;20232;-32
2023/01/24 12:56:03;;;;;;;30.47;25.00;;;5.10;99.90;;;;;;5060353;28;20206;-32
2023/01/24 12:58:39;;;;;;;32.37;24.17;;;5.20;99.90;;;;;;5059401;28;20294;-32
2023/01/24 13:01:18;;;;;;;34.67;24.97;;;5.20;99.90;;;;;;5060753;28;20210;-32
2023/01/24 13:04:14;;;;;;;32.90;25.00;;;5.20;99.90;;;;;;5060813;28;20498;-32
2023/01/24 13:07:20;;;;;;;31.90;24.93;;;5.20;99.90;;;;;;5054916;28;20227;-32
2023/01/24 13:10:05;;;;;;;31.23;24.33;;;5.20;99.90;;;;;;5055858;28;20876;-32
2023/01/24 13:12:36;;;;;;;30.90;23.03;;;5.20;99.90;;;;;;5051205;28;20281;-32
2023/01/24 13:15:23;;;;;;;33.30;23.77;;;5.30;99.90;;;;;;5062261;28;20706;-32
2023/01/24 13:18:15;;;;;;;33.67;24.90;;;5.40;99.90;;;;;;5062617;28;20204;-32
2023/01/24 13:20:56;;;;;;;35.00;24.60;;;5.40;99.90;;;;;;5061023;28;20215;-32
2023/01/24 13:23:29;;;;;;;31.73;24.77;;;5.40;99.90;;;;;;5058900;28;20230;-32
2023/01/24 13:26:18;;;;;;;30.07;24.50;;;5.40;99.90;;;;;;5060003;28;20196;-32
2023/01/24 13:29:29;;;;;;;29.60;24.83;;;5.50;99.90;;;;;;5057060;28;20192;-32
2023/01/24 13:32:12;;;;;;;32.50;25.07;;;5.50;99.90;;;;;;5063400;28;20227;-32
2023/01/24 13:34:50;;;;;;;29.67;24.23;;;5.50;99.90;;;;;;5062379;28;20286;-32
2023/01/24 13:37:25;;;;;;;30.53;24.10;;;5.50;99.90;;;;;;5061663;28;20521;-32
2023/01/24 13:40:01;;;;;;;31.43;23.47;;;5.50;99.90;;;;;;5061958;28;20214;-32
2023/01/24 13:42:38;;;;;;;30.60;23.80;;;5.50;99.90;;;;;;5061009;28;20784;-32
2023/01/24 13:45:30;;;;;;;35.03;24.83;;;5.50;99.90;;;;;;5063538;28;20747;-32
2023/01/24 13:47:59;;;;;;;31.73;25.27;;;5.50;99.90;;;;;;5061404;28;20633;-33
2023/01/24 13:50:32;;;;;;;29.03;23.47;;;5.50;99.90;;;;;;5063376;28;20643;-32